createdAt,value
2023-01-23T00:00:26.044Z,15.60
2023-01-23T00:01:26.047Z,15.50
2023-01-23T00:02:26.047Z,16.50
2023-01-23T00:03:26.063Z,15.40
2023-01-23T00:04:26.140Z,15.20
2023-01-23T00:05:26.005Z,15.50
2023-01-23T00:06:25.993Z,16.60
2023-01-23T00:07:25.988Z,15.80
2023-01-23T00:08:26.021Z,15.00
2023-01-23T00:09:26.007Z,16.00
2023-01-23T00:10:26.080Z,14.00
2023-01-23T00:11:25.969Z,14.10
2023-01-23T00:12:25.951Z,13.60
2023-01-23T00:13:25.946Z,14.40
2023-01-23T00:14:25.960Z,17.20
2023-01-23T00:15:25.929Z,15.50
2023-01-23T00:16:25.927Z,18.30
2023-01-23T00:17:25.919Z,15.30
2023-01-23T00:18:25.905Z,17.10
2023-01-23T00:19:25.932Z,17.50
2023-01-23T00:20:25.916Z,15.60
2023-01-23T00:21:25.896Z,16.10
2023-01-23T00:22:25.877Z,18.40
2023-01-23T00:23:25.877Z,16.50
2023-01-23T00:24:25.896Z,16.40
2023-01-23T00:25:25.857Z,16.70
2023-01-23T00:26:25.942Z,16.70
2023-01-23T00:27:25.835Z,17.90
2023-01-23T00:28:25.839Z,16.80
2023-01-23T00:29:25.850Z,17.60
2023-01-23T00:30:25.819Z,16.50
2023-01-23T00:31:25.996Z,15.80
2023-01-23T00:32:25.806Z,16.30
2023-01-23T00:33:25.792Z,14.70
2023-01-23T00:34:25.820Z,13.70
2023-01-23T00:35:25.779Z,14.40
2023-01-23T00:36:25.773Z,14.60
2023-01-23T00:37:25.775Z,14.40
2023-01-23T00:38:25.759Z,13.40
2023-01-23T00:39:25.803Z,14.60
2023-01-23T00:40:25.743Z,15.20
2023-01-23T00:41:25.741Z,14.50
2023-01-23T00:42:25.816Z,12.90
2023-01-23T00:43:25.724Z,13.00
2023-01-23T00:44:25.743Z,14.10
2023-01-23T00:45:25.705Z,13.50
2023-01-23T00:46:25.740Z,15.50
2023-01-23T00:47:25.691Z,13.50
2023-01-23T00:48:25.681Z,13.70
2023-01-23T00:49:25.683Z,15.60
2023-01-23T00:50:25.695Z,12.50
2023-01-23T00:51:25.690Z,16.20
2023-01-23T00:52:25.634Z,13.10
2023-01-23T00:53:26.646Z,12.80
2023-01-23T00:54:25.643Z,12.40
2023-01-23T00:55:25.659Z,15.40
2023-01-23T00:56:25.628Z,14.40
2023-01-23T00:57:25.630Z,14.30
2023-01-23T00:58:25.677Z,15.80
2023-01-23T00:59:25.692Z,14.40
2023-01-23T01:00:25.616Z,15.40
2023-01-23T01:01:25.630Z,13.00
2023-01-23T01:02:25.646Z,14.40
2023-01-23T01:03:25.581Z,13.40
2023-01-23T01:04:25.579Z,15.10
2023-01-23T01:05:25.581Z,13.80
2023-01-23T01:06:25.552Z,14.30
2023-01-23T01:07:25.542Z,13.10
2023-01-23T01:08:25.536Z,13.90
2023-01-23T01:09:25.533Z,14.50
2023-01-23T01:10:25.547Z,14.30
2023-01-23T01:11:25.515Z,15.90
2023-01-23T01:12:25.504Z,13.20
2023-01-23T01:13:25.501Z,12.90
2023-01-23T01:14:25.562Z,13.30
2023-01-23T01:15:25.507Z,12.50
2023-01-23T01:16:25.520Z,11.70
2023-01-23T01:17:25.464Z,9.70
2023-01-23T01:18:25.462Z,8.30
2023-01-23T01:19:25.455Z,10.70
2023-01-23T01:20:25.482Z,11.60
2023-01-23T01:21:25.436Z,12.00
2023-01-23T01:22:25.427Z,12.20
2023-01-23T01:23:25.435Z,12.30
2023-01-23T01:24:25.424Z,12.60
2023-01-23T01:25:25.479Z,13.60
2023-01-23T01:26:25.408Z,11.90
2023-01-23T01:27:25.383Z,8.90
2023-01-23T01:28:25.381Z,9.20
2023-01-23T01:29:25.374Z,9.30
2023-01-23T01:30:25.558Z,9.20
2023-01-23T01:31:25.499Z,8.10
2023-01-23T01:32:25.350Z,7.80
2023-01-23T01:33:25.345Z,7.40
2023-01-23T01:34:25.343Z,7.80
2023-01-23T01:35:25.359Z,8.10
2023-01-23T01:36:25.324Z,7.50
2023-01-23T01:37:25.312Z,7.40
2023-01-23T01:38:25.311Z,7.60
2023-01-23T01:39:25.304Z,7.20
2023-01-23T01:40:25.324Z,6.90
2023-01-23T01:41:25.292Z,7.60
2023-01-23T01:42:25.283Z,6.60
2023-01-23T01:43:25.280Z,5.60
2023-01-23T01:44:25.265Z,6.80
2023-01-23T01:45:25.281Z,6.80
2023-01-23T01:46:25.389Z,6.40
2023-01-23T01:47:25.242Z,6.40
2023-01-23T01:48:25.236Z,6.60
2023-01-23T01:49:25.237Z,6.20
2023-01-23T01:50:25.248Z,6.00
2023-01-23T01:51:25.252Z,6.10
2023-01-23T01:52:25.208Z,5.70
2023-01-23T01:53:25.199Z,6.50
2023-01-23T01:54:25.197Z,6.70
2023-01-23T01:55:25.215Z,6.10
2023-01-23T01:56:25.178Z,6.80
2023-01-23T01:57:25.175Z,8.00
2023-01-23T01:58:25.162Z,6.00
2023-01-23T01:59:25.154Z,6.00
2023-01-23T02:00:25.223Z,6.30
2023-01-23T02:01:25.144Z,6.50
2023-01-23T02:02:25.206Z,6.20
2023-01-23T02:03:25.120Z,5.20
2023-01-23T02:04:26.116Z,7.70
2023-01-23T02:05:25.143Z,4.90
2023-01-23T02:06:25.116Z,5.30
2023-01-23T02:07:25.099Z,5.30
2023-01-23T02:08:25.086Z,6.90
2023-01-23T02:09:25.090Z,6.40
2023-01-23T02:10:25.107Z,6.00
2023-01-23T02:11:25.065Z,6.60
2023-01-23T02:12:25.059Z,6.30
2023-01-23T02:13:25.046Z,6.40
2023-01-23T02:14:25.041Z,6.40
2023-01-23T02:15:25.063Z,6.30
2023-01-23T02:16:25.054Z,6.70
2023-01-23T02:17:25.020Z,6.60
2023-01-23T02:18:25.092Z,6.80
2023-01-23T02:19:24.999Z,6.60
2023-01-23T02:20:25.033Z,6.40
2023-01-23T02:21:25.503Z,6.60
2023-01-23T02:22:25.983Z,6.50
2023-01-23T02:23:24.974Z,7.30
2023-01-23T02:24:24.954Z,7.40
2023-01-23T02:25:25.982Z,7.10
2023-01-23T02:26:24.946Z,7.30
2023-01-23T02:27:24.942Z,8.50
2023-01-23T02:28:24.935Z,7.70
2023-01-23T02:29:24.933Z,7.60
2023-01-23T02:30:24.925Z,7.70
2023-01-23T02:31:25.011Z,8.00
2023-01-23T02:32:24.907Z,7.20
2023-01-23T02:33:24.902Z,9.40
2023-01-23T02:34:24.985Z,8.10
2023-01-23T02:35:24.883Z,9.40
2023-01-23T02:36:24.905Z,8.50
2023-01-23T02:37:24.879Z,7.50
2023-01-23T02:38:24.852Z,6.50
2023-01-23T02:39:25.854Z,6.50
2023-01-23T02:40:24.843Z,7.00
2023-01-23T02:41:24.852Z,7.50
2023-01-23T02:42:25.837Z,6.60
2023-01-23T02:43:24.819Z,7.70
2023-01-23T02:44:24.815Z,7.80
2023-01-23T02:45:24.838Z,8.20
2023-01-23T02:46:24.832Z,7.60
2023-01-23T02:47:24.788Z,6.50
2023-01-23T02:48:24.789Z,7.30
2023-01-23T02:49:24.783Z,6.60
2023-01-23T02:50:24.849Z,5.80
2023-01-23T02:51:24.872Z,5.30
2023-01-23T02:52:24.755Z,6.10
2023-01-23T02:53:24.744Z,4.90
2023-01-23T02:54:24.741Z,4.50
2023-01-23T02:55:24.726Z,4.70
2023-01-23T02:56:24.750Z,6.80
2023-01-23T02:57:24.743Z,5.40
2023-01-23T02:58:24.712Z,4.60
2023-01-23T02:59:24.702Z,6.00
2023-01-23T03:00:24.701Z,5.20
2023-01-23T03:01:24.713Z,4.20
2023-01-23T03:02:24.744Z,5.10
2023-01-23T03:03:24.671Z,4.70
2023-01-23T03:04:24.667Z,5.30
2023-01-23T03:05:24.656Z,7.10
2023-01-23T03:06:24.753Z,6.00
2023-01-23T03:07:24.653Z,5.60
2023-01-23T03:08:24.631Z,6.10
2023-01-23T03:09:24.634Z,6.40
2023-01-23T03:10:24.624Z,5.90
2023-01-23T03:11:24.637Z,5.00
2023-01-23T03:12:24.600Z,6.10
2023-01-23T03:13:24.597Z,6.50
2023-01-23T03:14:24.632Z,5.40
2023-01-23T03:15:24.582Z,7.30
2023-01-23T03:16:24.657Z,4.70
2023-01-23T03:17:24.582Z,5.30
2023-01-23T03:18:24.556Z,5.20
2023-01-23T03:19:24.568Z,4.60
2023-01-23T03:20:24.544Z,4.60
2023-01-23T03:21:25.559Z,4.20
2023-01-23T03:22:24.605Z,4.30
2023-01-23T03:23:24.523Z,4.00
2023-01-23T03:24:24.517Z,4.80
2023-01-23T03:25:24.516Z,3.70
2023-01-23T03:26:24.526Z,4.20
2023-01-23T03:27:24.487Z,4.40
2023-01-23T03:28:24.488Z,5.00
2023-01-23T03:29:24.476Z,4.70
2023-01-23T03:30:24.467Z,5.20
2023-01-23T03:31:24.523Z,5.60
2023-01-23T03:32:24.456Z,4.90
2023-01-23T03:33:24.447Z,5.60
2023-01-23T03:34:24.443Z,4.60
2023-01-23T03:35:24.436Z,3.30
2023-01-23T03:36:24.449Z,3.10
2023-01-23T03:37:24.416Z,4.10
2023-01-23T03:38:24.479Z,3.40
2023-01-23T03:39:24.406Z,4.00
2023-01-23T03:40:24.402Z,4.00
2023-01-23T03:41:24.414Z,3.90
2023-01-23T03:42:24.411Z,5.10
2023-01-23T03:43:24.369Z,6.10
2023-01-23T03:44:24.366Z,5.60
2023-01-23T03:45:24.484Z,6.30
2023-01-23T03:46:24.371Z,5.40
2023-01-23T03:47:24.342Z,5.10
2023-01-23T03:48:24.330Z,4.60
2023-01-23T03:49:24.323Z,4.90
2023-01-23T03:50:24.313Z,5.10
2023-01-23T03:51:24.362Z,7.10
2023-01-23T03:52:24.303Z,4.90
2023-01-23T03:53:24.292Z,5.10
2023-01-23T03:54:24.381Z,6.00
2023-01-23T03:55:24.277Z,6.20
2023-01-23T03:56:24.295Z,5.80
2023-01-23T03:57:24.266Z,6.50
2023-01-23T03:58:24.258Z,6.70
2023-01-23T03:59:24.251Z,5.40
2023-01-23T04:00:24.252Z,5.60
2023-01-23T04:01:24.369Z,6.20
2023-01-23T04:02:24.266Z,6.10
2023-01-23T04:03:24.216Z,7.40
2023-01-23T04:04:24.212Z,7.30
2023-01-23T04:05:24.203Z,6.90
2023-01-23T04:06:24.226Z,4.30
2023-01-23T04:07:24.196Z,5.10
2023-01-23T04:08:24.182Z,5.40
2023-01-23T04:09:24.169Z,4.90
2023-01-23T04:10:24.241Z,4.80
2023-01-23T04:11:24.172Z,5.50
2023-01-23T04:12:24.181Z,5.30
2023-01-23T04:13:24.148Z,5.10
2023-01-23T04:14:24.137Z,4.80
2023-01-23T04:15:24.141Z,5.40
2023-01-23T04:16:24.139Z,5.80
2023-01-23T04:17:24.144Z,5.10
2023-01-23T04:18:24.113Z,5.20
2023-01-23T04:19:24.112Z,4.90
2023-01-23T04:20:24.095Z,5.80
2023-01-23T04:21:24.084Z,5.40
2023-01-23T04:22:24.105Z,5.00
2023-01-23T04:23:24.082Z,5.10
2023-01-23T04:24:24.074Z,5.40
2023-01-23T04:25:24.058Z,5.10
2023-01-23T04:26:24.126Z,7.00
2023-01-23T04:27:24.072Z,5.80
2023-01-23T04:28:24.040Z,7.10
2023-01-23T04:29:24.045Z,7.20
2023-01-23T04:30:24.022Z,6.00
2023-01-23T04:31:24.079Z,6.30
2023-01-23T04:32:24.031Z,5.90
2023-01-23T04:33:24.007Z,6.40
2023-01-23T04:34:23.995Z,6.30
2023-01-23T04:35:23.983Z,5.60
2023-01-23T04:36:23.976Z,6.10
2023-01-23T04:37:23.995Z,6.40
2023-01-23T04:38:23.975Z,7.00
2023-01-23T04:39:23.952Z,7.10
2023-01-23T04:40:23.947Z,5.50
2023-01-23T04:41:23.938Z,6.20
2023-01-23T04:42:24.031Z,6.80
2023-01-23T04:43:23.919Z,8.50
2023-01-23T04:44:23.913Z,6.80
2023-01-23T04:45:23.948Z,6.90
2023-01-23T04:46:23.937Z,7.80
2023-01-23T04:47:23.894Z,7.80
2023-01-23T04:48:23.905Z,6.90
2023-01-23T04:49:23.882Z,8.00
2023-01-23T04:50:23.901Z,7.80
2023-01-23T04:51:23.917Z,7.10
2023-01-23T04:52:24.861Z,7.50
2023-01-23T04:53:23.856Z,13.40
2023-01-23T04:54:23.842Z,9.30
2023-01-23T04:55:23.863Z,8.90
2023-01-23T04:56:23.826Z,8.90
2023-01-23T04:57:23.817Z,7.80
2023-01-23T04:58:23.887Z,8.20
2023-01-23T04:59:23.809Z,8.50
2023-01-23T05:00:23.829Z,9.00
2023-01-23T05:01:23.817Z,7.10
2023-01-23T05:02:23.829Z,8.10
2023-01-23T05:03:23.777Z,8.50
2023-01-23T05:04:23.772Z,8.90
2023-01-23T05:05:23.789Z,7.50
2023-01-23T05:06:23.750Z,8.80
2023-01-23T05:07:23.753Z,9.40
2023-01-23T05:08:23.739Z,8.50
2023-01-23T05:09:23.735Z,9.40
2023-01-23T05:10:23.780Z,8.10
2023-01-23T05:11:23.742Z,8.00
2023-01-23T05:12:23.708Z,8.10
2023-01-23T05:13:23.704Z,8.80
2023-01-23T05:14:23.769Z,9.00
2023-01-23T05:15:23.740Z,8.70
2023-01-23T05:16:23.680Z,8.90
2023-01-23T05:17:23.669Z,9.80
2023-01-23T05:18:23.690Z,10.20
2023-01-23T05:19:23.655Z,9.20
2023-01-23T05:20:23.661Z,11.40
2023-01-23T05:21:23.682Z,9.90
2023-01-23T05:22:23.634Z,9.30
2023-01-23T05:23:23.628Z,8.60
2023-01-23T05:24:23.620Z,9.50
2023-01-23T05:25:23.612Z,10.20
2023-01-23T05:26:23.636Z,9.60
2023-01-23T05:27:23.600Z,8.80
2023-01-23T05:28:23.586Z,8.60
2023-01-23T05:29:23.579Z,9.80
2023-01-23T05:30:23.659Z,9.60
2023-01-23T05:31:23.684Z,9.40
2023-01-23T05:32:23.564Z,9.10
2023-01-23T05:33:23.551Z,10.90
2023-01-23T05:34:23.546Z,9.30
2023-01-23T05:35:23.543Z,10.30
2023-01-23T05:36:23.558Z,10.90
2023-01-23T05:37:23.522Z,10.20
2023-01-23T05:38:23.511Z,11.20
2023-01-23T05:39:23.508Z,10.60
2023-01-23T05:40:23.500Z,11.60
2023-01-23T05:41:25.585Z,10.70
2023-01-23T05:42:24.483Z,10.90
2023-01-23T05:43:23.479Z,9.80
2023-01-23T05:44:23.466Z,10.10
2023-01-23T05:45:23.471Z,11.80
2023-01-23T05:46:23.653Z,10.90
2023-01-23T05:47:23.444Z,11.10
2023-01-23T05:48:23.453Z,12.20
2023-01-23T05:49:23.431Z,11.20
2023-01-23T05:50:23.423Z,12.50
2023-01-23T05:51:23.614Z,12.30
2023-01-23T05:52:23.409Z,11.30
2023-01-23T05:53:23.402Z,12.50
2023-01-23T05:54:23.393Z,11.70
2023-01-23T05:55:23.381Z,13.80
2023-01-23T05:56:23.418Z,13.10
2023-01-23T05:57:23.371Z,10.40
2023-01-23T05:58:23.358Z,11.30
2023-01-23T05:59:23.361Z,13.70
2023-01-23T06:00:23.343Z,14.10
2023-01-23T06:01:23.338Z,12.90
2023-01-23T06:02:23.617Z,14.30
2023-01-23T06:03:23.466Z,14.00
2023-01-23T06:04:23.324Z,12.90
2023-01-23T06:05:23.309Z,12.60
2023-01-23T06:06:23.307Z,14.50
2023-01-23T06:07:23.326Z,14.00
2023-01-23T06:08:23.271Z,15.60
2023-01-23T06:09:24.284Z,16.30
2023-01-23T06:10:23.271Z,16.40
2023-01-23T06:11:23.271Z,13.00
2023-01-23T06:12:23.284Z,15.30
2023-01-23T06:13:23.256Z,16.20
2023-01-23T06:14:23.273Z,14.60
2023-01-23T06:15:23.235Z,14.80
2023-01-23T06:16:23.234Z,14.30
2023-01-23T06:17:23.247Z,14.20
2023-01-23T06:18:23.290Z,14.80
2023-01-23T06:19:23.222Z,14.20
2023-01-23T06:20:23.195Z,15.60
2023-01-23T06:21:23.194Z,13.10
2023-01-23T06:22:23.215Z,13.30
2023-01-23T06:23:23.189Z,15.60
2023-01-23T06:24:23.173Z,13.70
2023-01-23T06:25:23.162Z,14.70
2023-01-23T06:26:23.157Z,15.10
2023-01-23T06:27:23.180Z,14.80
2023-01-23T06:28:23.142Z,15.20
2023-01-23T06:29:23.149Z,13.30
2023-01-23T06:30:23.224Z,13.60
2023-01-23T06:31:23.251Z,14.40
2023-01-23T06:32:23.139Z,14.50
2023-01-23T06:33:23.107Z,15.50
2023-01-23T06:34:23.170Z,13.80
2023-01-23T06:35:23.089Z,14.50
2023-01-23T06:36:23.081Z,16.80
2023-01-23T06:37:23.101Z,13.60
2023-01-23T06:38:23.066Z,14.30
2023-01-23T06:39:23.115Z,13.60
2023-01-23T06:40:23.050Z,14.40
2023-01-23T06:41:23.042Z,15.10
2023-01-23T06:42:23.078Z,13.30
2023-01-23T06:43:23.083Z,16.40
2023-01-23T06:44:23.016Z,15.00
2023-01-23T06:45:23.039Z,16.00
2023-01-23T06:46:23.055Z,13.50
2023-01-23T06:47:22.996Z,16.50
2023-01-23T06:48:23.017Z,17.20
2023-01-23T06:49:23.002Z,16.10
2023-01-23T06:50:23.291Z,16.90
2023-01-23T06:51:24.017Z,18.90
2023-01-23T06:52:22.962Z,15.40
2023-01-23T06:53:22.979Z,18.40
2023-01-23T06:54:22.943Z,15.90
2023-01-23T06:55:22.948Z,15.90
2023-01-23T06:56:22.938Z,20.00
2023-01-23T06:57:22.915Z,15.40
2023-01-23T06:58:22.937Z,17.60
2023-01-23T06:59:22.905Z,18.60
2023-01-23T07:00:23.071Z,15.50
2023-01-23T07:01:22.934Z,19.40
2023-01-23T07:02:22.886Z,17.80
2023-01-23T07:03:22.904Z,14.40
2023-01-23T07:04:22.879Z,15.20
2023-01-23T07:05:22.878Z,13.60
2023-01-23T07:06:22.941Z,15.30
2023-01-23T07:07:22.859Z,15.00
2023-01-23T07:08:22.878Z,14.70
2023-01-23T07:09:22.837Z,14.00
2023-01-23T07:10:22.836Z,13.30
2023-01-23T07:11:22.831Z,16.40
2023-01-23T07:12:22.822Z,15.20
2023-01-23T07:13:22.833Z,17.30
2023-01-23T07:14:22.805Z,16.60
2023-01-23T07:15:22.799Z,16.50
2023-01-23T07:16:22.820Z,13.80
2023-01-23T07:17:22.782Z,15.70
2023-01-23T07:18:22.800Z,16.30
2023-01-23T07:19:22.759Z,14.50
2023-01-23T07:20:23.757Z,16.10
2023-01-23T07:21:22.743Z,14.20
2023-01-23T07:22:22.824Z,13.90
2023-01-23T07:23:22.759Z,16.00
2023-01-23T07:24:22.733Z,13.70
2023-01-23T07:25:22.724Z,14.80
2023-01-23T07:26:22.709Z,16.20
2023-01-23T07:27:23.720Z,15.90
2023-01-23T07:28:22.720Z,12.90
2023-01-23T07:29:22.689Z,16.10
2023-01-23T07:30:22.959Z,15.50
2023-01-23T07:31:22.751Z,13.40
2023-01-23T07:32:22.671Z,14.80
2023-01-23T07:33:22.689Z,15.70
2023-01-23T07:34:22.653Z,13.10
2023-01-23T07:35:22.646Z,14.60
2023-01-23T07:36:22.640Z,15.90
2023-01-23T07:37:22.639Z,14.50
2023-01-23T07:38:22.764Z,14.40
2023-01-23T07:39:22.626Z,14.80
2023-01-23T07:40:22.796Z,14.20
2023-01-23T07:41:22.607Z,12.40
2023-01-23T07:42:22.596Z,15.00
2023-01-23T07:43:22.620Z,14.10
2023-01-23T07:44:22.582Z,16.50
2023-01-23T07:45:22.575Z,13.80
2023-01-23T07:46:22.614Z,13.20
2023-01-23T07:47:22.564Z,14.60
2023-01-23T07:48:22.578Z,13.10
2023-01-23T07:49:22.550Z,15.80
2023-01-23T07:50:22.763Z,15.40
2023-01-23T07:51:22.583Z,15.10
2023-01-23T07:52:22.527Z,13.80
2023-01-23T07:53:22.544Z,12.50
2023-01-23T07:54:22.593Z,12.10
2023-01-23T07:55:22.504Z,13.40
2023-01-23T07:56:22.493Z,13.50
2023-01-23T07:57:22.485Z,14.30
2023-01-23T07:58:22.509Z,14.40
2023-01-23T07:59:22.477Z,14.10
2023-01-23T08:00:24.589Z,14.60
2023-01-23T08:01:23.469Z,12.80
2023-01-23T08:02:22.454Z,16.30
2023-01-23T08:03:22.470Z,12.90
2023-01-23T08:04:22.437Z,13.00
2023-01-23T08:05:22.428Z,12.50
2023-01-23T08:06:22.423Z,11.60
2023-01-23T08:07:22.433Z,12.30
2023-01-23T08:08:22.451Z,12.30
2023-01-23T08:09:22.400Z,11.30
2023-01-23T08:10:22.867Z,14.20
2023-01-23T08:11:22.388Z,14.40
2023-01-23T08:12:22.384Z,13.90
2023-01-23T08:13:22.400Z,14.50
2023-01-23T08:14:22.369Z,13.00
2023-01-23T08:15:22.360Z,15.40
2023-01-23T08:16:22.384Z,14.50
2023-01-23T08:17:22.346Z,14.50
2023-01-23T08:18:22.363Z,13.30
2023-01-23T08:19:22.329Z,15.00
2023-01-23T08:20:22.567Z,13.50
2023-01-23T08:21:22.312Z,13.50
2023-01-23T08:22:22.306Z,13.20
2023-01-23T08:23:22.328Z,13.80
2023-01-23T08:24:22.293Z,13.10
2023-01-23T08:25:22.282Z,15.00
2023-01-23T08:26:22.377Z,13.70
2023-01-23T08:27:22.268Z,15.20
2023-01-23T08:28:22.302Z,17.60
2023-01-23T08:29:22.254Z,14.70
2023-01-23T08:30:22.639Z,12.20
2023-01-23T08:31:22.501Z,13.90
2023-01-23T08:32:22.233Z,12.40
2023-01-23T08:33:22.254Z,13.30
2023-01-23T08:34:22.232Z,13.00
2023-01-23T08:35:22.234Z,14.10
2023-01-23T08:36:22.211Z,13.20
2023-01-23T08:37:22.196Z,11.80
2023-01-23T08:38:22.224Z,13.40
2023-01-23T08:39:22.189Z,12.00
2023-01-23T08:40:22.425Z,12.70
2023-01-23T08:41:22.166Z,14.30
2023-01-23T08:42:22.230Z,12.00
2023-01-23T08:43:22.152Z,12.60
2023-01-23T08:44:22.170Z,15.10
2023-01-23T08:45:22.141Z,13.40
2023-01-23T08:46:22.131Z,14.20
2023-01-23T08:47:22.135Z,14.00
2023-01-23T08:48:22.115Z,11.20
2023-01-23T08:49:22.127Z,12.80
2023-01-23T08:50:22.432Z,12.90
2023-01-23T08:51:22.149Z,14.60
2023-01-23T08:52:23.087Z,13.60
2023-01-23T08:53:22.079Z,13.10
2023-01-23T08:54:22.096Z,13.50
2023-01-23T08:55:22.070Z,15.20
2023-01-23T08:56:22.065Z,13.80
2023-01-23T08:57:22.047Z,15.50
2023-01-23T08:58:22.100Z,15.20
2023-01-23T08:59:23.058Z,16.70
2023-01-23T09:00:22.429Z,15.40
2023-01-23T09:01:22.121Z,15.60
2023-01-23T09:02:22.108Z,15.10
2023-01-23T09:03:22.015Z,15.00
2023-01-23T09:04:22.036Z,16.70
2023-01-23T09:05:21.987Z,14.20
2023-01-23T09:06:21.989Z,14.70
2023-01-23T09:07:21.984Z,15.70
2023-01-23T09:08:21.966Z,14.10
2023-01-23T09:09:21.985Z,16.80
2023-01-23T09:10:22.319Z,15.60
2023-01-23T09:11:21.944Z,15.90
2023-01-23T09:12:21.950Z,14.90
2023-01-23T09:13:21.922Z,15.30
2023-01-23T09:14:21.942Z,16.80
2023-01-23T09:15:21.919Z,16.00
2023-01-23T09:16:21.917Z,17.00
2023-01-23T09:17:21.899Z,15.80
2023-01-23T09:18:21.883Z,18.20
2023-01-23T09:19:21.905Z,15.20
2023-01-23T09:20:22.108Z,16.30
2023-01-23T09:21:21.867Z,14.70
2023-01-23T09:22:21.861Z,17.20
2023-01-23T09:23:21.859Z,16.00
2023-01-23T09:24:21.877Z,15.30
2023-01-23T09:25:21.833Z,16.90
2023-01-23T09:26:21.827Z,17.20
2023-01-23T09:27:21.821Z,14.70
2023-01-23T09:28:21.810Z,16.20
2023-01-23T09:29:21.834Z,17.30
2023-01-23T09:30:22.361Z,13.00
2023-01-23T09:31:21.818Z,15.70
2023-01-23T09:32:21.780Z,15.70
2023-01-23T09:33:21.764Z,14.50
2023-01-23T09:34:22.793Z,14.60
2023-01-23T09:35:21.762Z,14.30
2023-01-23T09:36:33.638Z,13.90
2023-01-23T09:37:23.750Z,15.90
2023-01-23T09:38:21.743Z,14.10
2023-01-23T09:39:21.756Z,14.30
2023-01-23T09:40:22.325Z,17.60
2023-01-23T09:41:21.715Z,16.50
2023-01-23T09:42:21.703Z,15.30
2023-01-23T09:43:21.706Z,15.20
2023-01-23T09:44:21.717Z,15.90
2023-01-23T09:45:21.683Z,14.90
2023-01-23T09:46:21.751Z,15.50
2023-01-23T09:47:21.663Z,14.60
2023-01-23T09:48:21.662Z,15.60
2023-01-23T09:49:21.675Z,15.00
2023-01-23T09:50:21.979Z,17.70
2023-01-23T09:51:21.669Z,15.20
2023-01-23T09:52:21.626Z,16.50
2023-01-23T09:53:21.613Z,16.10
2023-01-23T09:54:21.670Z,14.70
2023-01-23T09:55:21.601Z,14.70
2023-01-23T09:56:21.616Z,15.90
2023-01-23T09:57:21.584Z,16.00
2023-01-23T09:58:21.581Z,15.40
2023-01-23T09:59:21.595Z,14.90
2023-01-23T10:00:21.847Z,16.50
2023-01-23T10:01:21.561Z,16.90
2023-01-23T10:02:21.562Z,17.10
2023-01-23T10:03:21.541Z,19.40
2023-01-23T10:04:21.538Z,16.40
2023-01-23T10:05:21.550Z,16.90
2023-01-23T10:06:21.520Z,17.30
2023-01-23T10:07:21.514Z,17.10
2023-01-23T10:08:21.500Z,16.90
2023-01-23T10:09:21.494Z,15.00
2023-01-23T10:10:21.848Z,16.30
2023-01-23T10:11:21.479Z,15.70
2023-01-23T10:12:21.473Z,16.80
2023-01-23T10:13:21.484Z,17.50
2023-01-23T10:14:21.456Z,18.20
2023-01-23T10:15:21.823Z,15.80
2023-01-23T10:16:21.458Z,16.30
2023-01-23T10:17:21.540Z,15.10
2023-01-23T10:18:21.516Z,16.70
2023-01-23T10:19:21.416Z,15.90
2023-01-23T10:20:21.841Z,17.60
2023-01-23T10:21:21.412Z,18.40
2023-01-23T10:22:23.114Z,18.90
2023-01-23T10:23:22.384Z,20.40
2023-01-23T10:24:23.593Z,19.00
2023-01-23T10:25:22.875Z,17.40
2023-01-23T10:26:21.360Z,15.50
2023-01-23T10:27:21.371Z,14.70
2023-01-23T10:28:21.345Z,15.40
2023-01-23T10:29:21.331Z,14.50
2023-01-23T10:30:21.562Z,16.90
2023-01-23T10:31:21.376Z,16.10
2023-01-23T10:32:21.317Z,16.00
2023-01-23T10:33:21.308Z,15.90
2023-01-23T10:34:21.377Z,16.10
2023-01-23T10:35:21.515Z,16.50
2023-01-23T10:36:23.908Z,18.00
2023-01-23T10:37:22.275Z,16.60
2023-01-23T10:38:21.267Z,17.00
2023-01-23T10:39:21.260Z,18.40
2023-01-23T10:40:21.543Z,15.70
2023-01-23T10:41:23.328Z,15.20
2023-01-23T10:42:22.233Z,15.20
2023-01-23T10:43:21.233Z,17.60
2023-01-23T10:44:21.221Z,14.80
2023-01-23T10:45:21.545Z,15.80
2023-01-23T10:46:21.350Z,15.00
2023-01-23T10:47:21.212Z,16.20
2023-01-23T10:48:21.188Z,15.30
2023-01-23T10:49:21.183Z,15.30
2023-01-23T10:50:21.246Z,16.90
2023-01-23T10:51:21.221Z,17.00
2023-01-23T10:52:21.448Z,14.80
2023-01-23T10:53:21.153Z,14.30
2023-01-23T10:54:33.278Z,15.30
2023-01-23T10:55:23.479Z,16.40
2023-01-23T10:56:21.159Z,15.60
2023-01-23T10:57:21.149Z,15.70
2023-01-23T10:58:21.116Z,17.00
2023-01-23T10:59:21.104Z,15.00
2023-01-23T11:00:21.098Z,15.30
2023-01-23T11:01:21.156Z,13.60
2023-01-23T11:02:21.298Z,18.30
2023-01-23T11:03:21.079Z,18.40
2023-01-23T11:04:21.070Z,17.50
2023-01-23T11:05:21.416Z,15.20
2023-01-23T11:06:21.183Z,18.30
2023-01-23T11:07:21.060Z,16.50
2023-01-23T11:08:21.031Z,16.70
2023-01-23T11:09:21.021Z,17.80
2023-01-23T11:10:21.022Z,16.30
2023-01-23T11:11:21.040Z,17.50
2023-01-23T11:12:21.006Z,15.30
2023-01-23T11:13:20.990Z,16.00
2023-01-23T11:14:21.006Z,15.70
2023-01-23T11:15:21.413Z,14.70
2023-01-23T11:16:21.043Z,14.60
2023-01-23T11:17:20.961Z,15.60
2023-01-23T11:18:20.957Z,15.70
2023-01-23T11:19:20.948Z,16.30
2023-01-23T11:20:20.936Z,15.40
2023-01-23T11:21:20.958Z,15.60
2023-01-23T11:22:21.002Z,15.70
2023-01-23T11:23:20.918Z,15.00
2023-01-23T11:24:27.702Z,15.20
2023-01-23T11:25:23.635Z,14.20
2023-01-23T11:26:20.920Z,16.30
2023-01-23T11:27:20.901Z,15.80
2023-01-23T11:28:20.882Z,16.50
2023-01-23T11:29:20.863Z,15.80
2023-01-23T11:30:20.877Z,15.70
2023-01-23T11:31:20.932Z,15.80
2023-01-23T11:32:22.028Z,15.40
2023-01-23T11:33:20.836Z,14.60
2023-01-23T11:34:20.830Z,15.30
2023-01-23T11:35:21.090Z,14.90
2023-01-23T11:36:20.838Z,14.40
2023-01-23T11:37:20.810Z,14.30
2023-01-23T11:38:30.277Z,15.60
2023-01-23T11:39:22.798Z,15.90
2023-01-23T11:40:20.791Z,15.40
2023-01-23T11:41:20.800Z,15.40
2023-01-23T11:42:20.774Z,15.80
2023-01-23T11:43:20.759Z,16.90
2023-01-23T11:44:22.641Z,18.70
2023-01-23T11:45:20.925Z,17.30
2023-01-23T11:46:20.824Z,15.50
2023-01-23T11:47:20.728Z,15.80
2023-01-23T11:48:20.726Z,15.10
2023-01-23T11:49:20.715Z,14.00
2023-01-23T11:50:20.689Z,14.10
2023-01-23T11:51:21.797Z,14.80
2023-01-23T11:52:20.697Z,13.50
2023-01-23T11:53:22.513Z,15.70
2023-01-23T11:54:21.744Z,15.20
2023-01-23T11:55:20.844Z,14.40
2023-01-23T11:56:20.653Z,17.10
2023-01-23T11:57:20.674Z,13.80
2023-01-23T11:58:20.643Z,14.60
2023-01-23T11:59:20.633Z,14.20
2023-01-23T12:00:20.807Z,15.70
2023-01-23T12:01:20.627Z,15.10
2023-01-23T12:02:20.688Z,13.60
2023-01-23T12:03:20.605Z,17.00
2023-01-23T12:04:20.602Z,15.50
2023-01-23T12:05:20.912Z,14.10
2023-01-23T12:06:20.721Z,15.30
2023-01-23T12:07:21.598Z,14.70
2023-01-23T12:08:20.569Z,14.90
2023-01-23T12:09:20.562Z,15.80
2023-01-23T12:10:20.629Z,14.30
2023-01-23T12:11:20.549Z,15.80
2023-01-23T12:12:20.559Z,13.30
2023-01-23T12:13:20.532Z,13.30
2023-01-23T12:14:20.521Z,11.50
2023-01-23T12:15:20.514Z,12.60
2023-01-23T12:16:20.606Z,13.60
2023-01-23T12:17:20.513Z,11.90
2023-01-23T12:18:20.482Z,12.40
2023-01-23T12:19:20.477Z,12.10
2023-01-23T12:20:20.754Z,14.80
2023-01-23T12:21:20.467Z,13.90
2023-01-23T12:22:20.472Z,13.30
2023-01-23T12:23:20.446Z,15.10
2023-01-23T12:24:20.436Z,13.30
2023-01-23T12:25:20.663Z,12.10
2023-01-23T12:26:20.496Z,12.80
2023-01-23T12:27:20.451Z,13.10
2023-01-23T12:28:20.428Z,14.00
2023-01-23T12:29:20.390Z,12.40
2023-01-23T12:30:20.622Z,14.00
2023-01-23T12:31:20.477Z,12.00
2023-01-23T12:32:20.481Z,13.10
2023-01-23T12:33:20.367Z,15.00
2023-01-23T12:34:20.350Z,13.00
2023-01-23T12:35:20.346Z,15.50
2023-01-23T12:36:20.339Z,13.10
2023-01-23T12:37:30.476Z,13.40
2023-01-23T12:38:22.323Z,13.00
2023-01-23T12:39:20.323Z,13.80
2023-01-23T12:40:20.573Z,12.80
2023-01-23T12:41:20.304Z,15.50
2023-01-23T12:42:20.384Z,12.70
2023-01-23T12:43:20.309Z,13.10
2023-01-23T12:44:20.278Z,15.30
2023-01-23T12:45:20.484Z,17.40
2023-01-23T12:46:20.261Z,14.40
2023-01-23T12:47:20.252Z,14.50
2023-01-23T12:48:20.267Z,13.20
2023-01-23T12:49:20.237Z,16.40
2023-01-23T12:50:20.234Z,15.70
2023-01-23T12:51:20.230Z,13.10
2023-01-23T12:52:20.215Z,13.80
2023-01-23T12:53:20.241Z,14.90
2023-01-23T12:54:21.202Z,13.80
2023-01-23T12:55:20.196Z,11.90
2023-01-23T12:56:20.183Z,14.30
2023-01-23T12:57:20.178Z,12.60
2023-01-23T12:58:20.279Z,13.20
2023-01-23T12:59:20.164Z,12.10
2023-01-23T13:00:20.384Z,14.20